Impacts TAF Board INFO
FOR SITUATIONAL AWARENESS. NOT TO BE USED FOR FLIGHT PLANNING PURPOSES.
IDs:

KCVG - Cincinnati Intl, KY, US

Issued at 0745 UTC 22 Jul 2018
Updated at 0823 UTC 22 Jul 2018
Potential Impact None Slight Moderate High
Time0752Z 22/09Z 22/10Z 22/11Z 22/12Z 22/13Z 22/14Z 22/15Z 22/16Z 22/17Z 22/18Z 22/19Z 22/20Z 22/21Z>>
Type OBS PRVL
  [TEMP]  
PRVL
  [TEMP]  
PRVL
  [TEMP]  
PRVL PRVL PRVL PRVL PRVL PRVL PRVL PRVL PRVL PRVL
VIS 8 4
  [2]  
4
  [2]  
4
  [2]  
4 4 4 4 >6 >6 >6 >6 >6 >6
CIG 4 6
  [4]  
6
  [4]  
6
  [4]  
6 6 6 6 12 12 12 25 25 25
Cover OVC OVC
  [OVC]  
OVC
  [OVC]  
OVC
  [OVC]  
OVC OVC OVC OVC OVC OVC OVC BKN BKN BKN
FltCat LIFR IFR
  [LIFR]  
IFR
  [LIFR]  
IFR
  [LIFR]  
IFR IFR IFR IFR MVFR MVFR MVFR MVFR MVFR MVFR
WX -- BR VCSH
  [-SHRA BR]  
BR VCSH
  [-SHRA BR]  
BR VCSH
  [-SHRA BR]  
BR VCSH BR VCSH BR VCSH BR VCSH -SHRA -SHRA -SHRA -SHRA VCTS -SHRA VCTS -SHRA VCTS
WDir 320 250
[250]
250
[250]
250
[250]
250 250 250 250 340 340 340 10 10 10
WSpd 7 4
  [4]  
4
  [4]  
4
  [4]  
4 4 4 4 5 5 5 8 8 8
WGst -- --
  [--]  
--
  [--]  
--
  [--]  
-- -- -- -- -- -- -- -- -- --

Raw TAF
KCVG 220745Z 2208/2312 25004KT 4SM BR VCSH OVC006
  TEMPO 2208/2212 2SM -SHRA BR OVC004
  FM221600 34005KT P6SM -SHRA OVC012
  FM221900 01008KT P6SM -SHRA VCTS BKN025CB
  FM230200 03007KT P6SM BKN025
  FM230600 04006KT P6SM BKN015


Raw METAR
KCVG 220752Z 32007KT 8SM BKN004 OVC010 21/21 A2966 RMK AO2 RAE46 SLP033 P0003 T02110211
KCVG 220710Z 32004KT 1SM R18C/P6000FT -RA BR OVC004 21/21 A2966 RMK AO2 SFC VIS 2 P0002 T02060206
KCVG 220652Z 26004KT 4SM -RA BR BKN004 OVC009 21/21 A2967 RMK AO2 RAE22B35 SLP036 P0001 T02060206
KCVG 220623Z 26004KT 3SM BR BKN004 OVC008 21/21 A2967 RMK AO2 RAE22 P0001 T02060206
KCVG 220552Z 25007KT 2SM -RA BR BKN005 OVC011 21/21 A2968 RMK AO2 TWR VIS 2 1/2 SLP042 P0012 60045 T02110206 10217 20211 56016
KCVG 220549Z 26005KT 2SM RA BR BKN005 OVC010 21/21 A2968 RMK AO2 TWR VIS 2 1/2 P0012
KCVG 220536Z 25006KT 4SM RA BR BKN004 OVC011 21/21 A2969 RMK AO2 P0007 T02110206

METAR Board
Radar Display
Forecast Discussion

FOR SITUATIONAL AWARENESS. NOT TO BE USED FOR FLIGHT PLANNING PURPOSES.